Time;durP1;ratioP1;P1;durP2;ratioP2;P2;SDS_P1;SDS_P2;PMS_P1;PMS_P2;Temp;Humidity;BMP_temperature;BMP_pressure;BME280_temperature;BME280_humidity;BME280_pressure;Samples;Min_cycle;Max_cycle;Signal;HPM_P1;HPM_P2
2022/01/29 00:02:24;;;;;;;50.23;30.90;;;;;;;;;;4991767;28;20208;-60
2022/01/29 00:04:49;;;;;;;58.93;31.90;;;;;;;;;;4975271;28;20609;-60
2022/01/29 00:07:14;;;;;;;52.97;30.57;;;;;;;;;;4992350;28;20230;-60
2022/01/29 00:09:39;;;;;;;58.37;31.37;;;;;;;;;;4974487;28;20231;-60
2022/01/29 00:12:05;;;;;;;53.00;30.70;;;;;;;;;;4992330;28;20221;-61
2022/01/29 00:14:30;;;;;;;52.30;30.43;;;;;;;;;;4992780;28;20213;-61
2022/01/29 00:16:55;;;;;;;54.80;30.97;;;;;;;;;;4986058;28;20210;-60
2022/01/29 00:19:21;;;;;;;55.70;32.63;;;;;;;;;;4972456;28;20246;-60
2022/01/29 00:21:46;;;;;;;52.80;30.63;;;;;;;;;;4973288;28;20225;-61
2022/01/29 00:24:11;;;;;;;53.43;31.93;;;;;;;;;;5005150;28;20263;-61
2022/01/29 00:26:36;;;;;;;53.07;30.57;;;;;;;;;;5011931;28;20256;-60
2022/01/29 00:29:09;;;;;;;61.33;32.70;;;;;;;;;;5011031;28;20282;-60
2022/01/29 00:31:34;;;;;;;54.70;33.10;;;;;;;;;;5012039;28;20208;-61
2022/01/29 00:33:59;;;;;;;56.00;32.27;;;;;;;;;;5012007;28;20612;-61
2022/01/29 00:36:24;;;;;;;58.87;33.13;;;;;;;;;;5010719;28;20232;-60
2022/01/29 00:38:50;;;;;;;61.27;34.80;;;;;;;;;;4998199;28;20222;-60
2022/01/29 00:41:15;;;;;;;59.77;32.30;;;;;;;;;;5015105;28;20220;-60
2022/01/29 00:43:40;;;;;;;63.22;34.40;;;;;;;;;;4997441;28;20231;-61
2022/01/29 00:46:05;;;;;;;61.23;34.13;;;;;;;;;;5014910;28;20316;-60
2022/01/29 00:48:31;;;;;;;58.87;32.93;;;;;;;;;;5015660;28;20231;-61
2022/01/29 00:50:57;;;;;;;57.43;34.33;;;;;;;;;;4997288;28;20220;-60
2022/01/29 00:53:22;;;;;;;58.20;34.37;;;;;;;;;;5014981;28;20220;-61
2022/01/29 00:55:48;;;;;;;58.53;33.23;;;;;;;;;;5015254;28;20212;-60
2022/01/29 00:58:13;;;;;;;57.93;34.73;;;;;;;;;;5001366;28;20214;-60
2022/01/29 01:00:38;;;;;;;60.10;34.50;;;;;;;;;;4994510;28;20212;-60
2022/01/29 01:03:04;;;;;;;62.17;36.27;;;;;;;;;;4995358;28;20220;-60
2022/01/29 01:05:29;;;;;;;64.33;34.97;;;;;;;;;;4994784;28;20263;-60
2022/01/29 01:07:54;;;;;;;56.75;35.65;;;;;;;;;;4995752;28;20209;-59
2022/01/29 01:10:19;;;;;;;57.57;33.83;;;;;;;;;;4995097;28;20250;-60
2022/01/29 01:12:45;;;;;;;66.97;35.63;;;;;;;;;;4977356;28;20260;-59
2022/01/29 01:15:10;;;;;;;60.87;34.23;;;;;;;;;;4994920;28;20224;-60
2022/01/29 01:17:35;;;;;;;62.77;34.37;;;;;;;;;;4995312;28;20216;-59
2022/01/29 01:20:00;;;;;;;61.83;33.80;;;;;;;;;;4993946;28;20220;-60
2022/01/29 01:22:25;;;;;;;58.37;34.33;;;;;;;;;;4998112;28;20573;-60
2022/01/29 01:24:51;;;;;;;57.80;33.67;;;;;;;;;;4997068;28;20333;-59
2022/01/29 01:27:16;;;;;;;58.50;34.93;;;;;;;;;;5013580;28;20227;-60
2022/01/29 01:29:41;;;;;;;56.40;33.40;;;;;;;;;;5015191;28;20249;-59
2022/01/29 01:32:11;;;;;;;65.80;35.67;;;;;;;;;;4996790;28;20369;-60
2022/01/29 01:34:39;;;;;;;62.10;35.37;;;;;;;;;;5014103;28;20208;-59
2022/01/29 01:37:09;;;;;;;60.03;33.87;;;;;;;;;;5014062;28;20227;-60
2022/01/29 01:39:37;;;;;;;58.03;33.27;;;;;;;;;;5013802;28;20963;-59
2022/01/29 01:42:05;;;;;;;61.23;34.00;;;;;;;;;;4996827;28;20236;-59
2022/01/29 01:44:38;;;;;;;57.80;34.80;;;;;;;;;;5014462;28;20259;-59
2022/01/29 01:47:04;;;;;;;63.93;35.63;;;;;;;;;;4995811;28;20252;-60
2022/01/29 01:49:29;;;;;;;59.85;34.88;;;;;;;;;;5013926;28;20710;-59
2022/01/29 01:51:54;;;;;;;58.77;34.10;;;;;;;;;;5014349;28;20213;-59
2022/01/29 01:54:20;;;;;;;58.50;34.00;;;;;;;;;;4995759;28;20274;-59
2022/01/29 01:56:45;;;;;;;65.87;35.23;;;;;;;;;;4996607;28;20217;-59
2022/01/29 01:59:11;;;;;;;60.57;34.13;;;;;;;;;;5013977;28;20303;-59
2022/01/29 02:01:36;;;;;;;59.83;34.60;;;;;;;;;;4995270;28;20212;-59
2022/01/29 02:04:01;;;;;;;59.43;34.13;;;;;;;;;;4994183;28;20217;-59
2022/01/29 02:06:27;;;;;;;58.63;33.80;;;;;;;;;;4994310;28;20256;-59
2022/01/29 02:08:58;;;;;;;62.90;34.70;;;;;;;;;;4976269;28;20217;-59
2022/01/29 02:11:23;;;;;;;59.57;34.53;;;;;;;;;;4994127;28;20676;-59
2022/01/29 02:13:49;;;;;;;56.33;34.30;;;;;;;;;;4994461;28;20305;-59
2022/01/29 02:16:14;;;;;;;60.07;33.73;;;;;;;;;;4992736;28;20237;-59
2022/01/29 02:18:39;;;;;;;58.17;32.93;;;;;;;;;;4957904;28;20224;-59
2022/01/29 02:21:04;;;;;;;63.30;36.10;;;;;;;;;;4974237;28;20252;-59
2022/01/29 02:23:30;;;;;;;62.27;34.63;;;;;;;;;;4996037;28;20236;-59
2022/01/29 02:25:55;;;;;;;57.30;32.23;;;;;;;;;;5013630;28;20278;-59
2022/01/29 02:28:21;;;;;;;55.13;32.43;;;;;;;;;;5013257;28;20212;-60
2022/01/29 02:30:47;;;;;;;58.13;33.77;;;;;;;;;;4995649;28;20580;-59
2022/01/29 02:33:14;;;;;;;51.17;31.20;;;;;;;;;;5012984;28;20232;-59
2022/01/29 02:35:40;;;;;;;48.40;30.65;;;;;;;;;;4995272;28;20668;-59
2022/01/29 02:38:05;;;;;;;52.77;31.73;;;;;;;;;;4995660;28;20600;-60
2022/01/29 02:40:35;;;;;;;55.77;32.53;;;;;;;;;;5013754;28;20226;-60
2022/01/29 02:43:11;;;;;;;51.73;32.50;;;;;;;;;;5012219;28;20638;-60
2022/01/29 02:45:36;;;;;;;47.87;30.77;;;;;;;;;;5013395;28;20231;-60
2022/01/29 02:48:01;;;;;;;46.90;29.57;;;;;;;;;;4995478;28;20604;-59
2022/01/29 02:50:27;;;;;;;46.57;30.77;;;;;;;;;;5012617;28;20560;-60
2022/01/29 02:52:52;;;;;;;44.97;28.83;;;;;;;;;;5013366;28;20295;-60
2022/01/29 02:55:17;;;;;;;46.90;29.37;;;;;;;;;;5012876;28;20220;-60
2022/01/29 02:57:42;;;;;;;45.03;28.27;;;;;;;;;;5012316;28;20339;-60
2022/01/29 03:00:10;;;;;;;44.20;28.93;;;;;;;;;;5006036;28;20676;-60
2022/01/29 03:02:35;;;;;;;47.13;29.77;;;;;;;;;;4993371;28;20241;-61
2022/01/29 03:05:01;;;;;;;37.97;26.63;;;;;;;;;;4992358;28;20259;-61
2022/01/29 03:07:27;;;;;;;41.43;27.07;;;;;;;;;;4993243;28;20257;-61
2022/01/29 03:09:53;;;;;;;39.53;26.07;;;;;;;;;;4993482;28;20220;-61
2022/01/29 03:12:18;;;;;;;43.17;28.63;;;;;;;;;;4992150;28;20209;-61
2022/01/29 03:14:43;;;;;;;40.47;27.37;;;;;;;;;;4993663;28;20211;-61
2022/01/29 03:17:08;;;;;;;34.97;25.33;;;;;;;;;;4985098;28;20696;-61
2022/01/29 03:19:34;;;;;;;39.33;27.23;;;;;;;;;;4955931;28;20577;-61
2022/01/29 03:22:00;;;;;;;40.33;26.47;;;;;;;;;;4973551;28;20261;-61
2022/01/29 03:24:25;;;;;;;40.50;25.80;;;;;;;;;;4989548;28;20696;-61
2022/01/29 03:26:51;;;;;;;40.27;26.37;;;;;;;;;;4992502;28;20232;-61
2022/01/29 03:29:16;;;;;;;41.63;26.77;;;;;;;;;;4991558;28;20292;-61
2022/01/29 03:31:41;;;;;;;37.30;25.67;;;;;;;;;;4993243;28;20245;-61
2022/01/29 03:34:06;;;;;;;37.20;25.23;;;;;;;;;;4992101;28;20221;-61
2022/01/29 03:36:32;;;;;;;38.93;25.50;;;;;;;;;;4993157;28;20577;-61
2022/01/29 03:38:57;;;;;;;41.10;26.80;;;;;;;;;;4992291;28;20247;-61
2022/01/29 03:41:23;;;;;;;37.53;25.87;;;;;;;;;;4992666;28;20213;-61
2022/01/29 03:43:51;;;;;;;36.93;24.77;;;;;;;;;;4993157;28;20220;-61
2022/01/29 03:46:16;;;;;;;39.00;25.53;;;;;;;;;;4991809;28;20266;-61
2022/01/29 03:48:42;;;;;;;37.13;24.40;;;;;;;;;;4993042;28;20291;-61
2022/01/29 03:51:07;;;;;;;36.17;24.77;;;;;;;;;;4992624;28;20216;-61
2022/01/29 03:53:32;;;;;;;36.57;24.03;;;;;;;;;;4991969;28;20205;-61
2022/01/29 03:55:57;;;;;;;37.97;25.70;;;;;;;;;;4992985;28;20338;-61
2022/01/29 03:58:22;;;;;;;38.73;24.97;;;;;;;;;;4991085;28;20260;-61
2022/01/29 04:00:48;;;;;;;39.37;25.10;;;;;;;;;;4979387;28;20689;-61
2022/01/29 04:03:13;;;;;;;39.70;27.13;;;;;;;;;;4971582;28;20232;-61
2022/01/29 04:05:38;;;;;;;36.07;25.03;;;;;;;;;;4973411;28;20254;-61
2022/01/29 04:08:07;;;;;;;34.20;23.47;;;;;;;;;;4972104;28;20268;-61
2022/01/29 04:10:32;;;;;;;34.30;23.20;;;;;;;;;;4973335;28;20662;-61
2022/01/29 04:12:57;;;;;;;37.17;24.90;;;;;;;;;;4975728;28;20344;-61
2022/01/29 04:15:24;;;;;;;34.40;23.40;;;;;;;;;;4976073;28;20575;-61
2022/01/29 04:17:49;;;;;;;41.25;24.50;;;;;;;;;;4964025;28;20300;-61
2022/01/29 04:20:14;;;;;;;39.50;25.47;;;;;;;;;;4957998;28;20423;-61
2022/01/29 04:22:40;;;;;;;39.80;26.13;;;;;;;;;;4965467;28;20205;-61
2022/01/29 04:25:05;;;;;;;41.57;26.53;;;;;;;;;;5013481;28;20250;-61
2022/01/29 04:27:37;;;;;;;41.90;26.57;;;;;;;;;;4998413;28;20223;-61
2022/01/29 04:30:08;;;;;;;45.60;27.20;;;;;;;;;;5014689;28;20286;-61
2022/01/29 04:35:05;;;;;;;45.73;29.47;;;;;;;;;;5014669;28;20212;-61
2022/01/29 04:37:31;;;;;;;46.03;29.03;;;;;;;;;;5015922;28;20230;-60
2022/01/29 04:39:56;;;;;;;48.03;29.03;;;;;;;;;;5015528;28;20228;-60
2022/01/29 04:42:21;;;;;;;48.67;29.67;;;;;;;;;;5014571;28;20216;-60
2022/01/29 04:44:46;;;;;;;46.00;29.53;;;;;;;;;;5015744;28;20311;-60
2022/01/29 04:47:12;;;;;;;55.80;31.03;;;;;;;;;;5015340;28;20236;-61
2022/01/29 04:49:37;;;;;;;52.63;30.33;;;;;;;;;;5014874;28;20209;-60
2022/01/29 04:52:02;;;;;;;51.90;30.90;;;;;;;;;;4997871;28;20672;-61
2022/01/29 04:54:27;;;;;;;53.37;31.70;;;;;;;;;;5015292;28;20576;-60
2022/01/29 04:56:53;;;;;;;54.30;31.87;;;;;;;;;;5014711;28;20217;-60
2022/01/29 04:59:18;;;;;;;52.70;31.17;;;;;;;;;;5014859;28;20719;-60
2022/01/29 05:01:43;;;;;;;58.17;33.03;;;;;;;;;;4996336;28;20235;-60
2022/01/29 05:04:08;;;;;;;49.70;30.27;;;;;;;;;;4994484;28;20217;-60
2022/01/29 05:06:33;;;;;;;54.23;32.67;;;;;;;;;;4995726;28;20225;-60
2022/01/29 05:08:59;;;;;;;56.17;31.60;;;;;;;;;;4995353;28;20213;-60
2022/01/29 05:11:24;;;;;;;52.20;32.77;;;;;;;;;;4994357;28;20292;-60
2022/01/29 05:13:49;;;;;;;58.97;32.93;;;;;;;;;;4978171;28;20217;-60
2022/01/29 05:27:01;;;;;;;54.63;34.10;;;;;;;;;;4999891;28;20721;-60
2022/01/29 05:29:30;;;;;;;57.73;34.30;;;;;;;;;;5014347;28;20698;-60
2022/01/29 05:31:55;;;;;;;57.87;35.30;;;;;;;;;;5014207;28;20213;-60
2022/01/29 05:34:21;;;;;;;56.40;33.83;;;;;;;;;;5014080;28;20239;-61
2022/01/29 05:36:46;;;;;;;60.17;34.77;;;;;;;;;;5015007;28;20320;-60
2022/01/29 05:39:11;;;;;;;62.27;35.60;;;;;;;;;;5013275;28;20576;-61
2022/01/29 05:41:37;;;;;;;69.67;36.30;;;;;;;;;;5014982;28;20208;-60
2022/01/29 05:44:02;;;;;;;54.17;34.80;;;;;;;;;;5013935;28;20223;-61
2022/01/29 05:46:27;;;;;;;60.90;35.73;;;;;;;;;;4996181;28;20220;-61
2022/01/29 05:48:52;;;;;;;62.57;34.97;;;;;;;;;;5014266;28;20223;-60
2022/01/29 05:51:18;;;;;;;64.50;37.30;;;;;;;;;;5014176;28;20216;-61
2022/01/29 05:53:43;;;;;;;63.83;35.93;;;;;;;;;;5013681;28;20213;-60
2022/01/29 05:56:08;;;;;;;63.90;36.50;;;;;;;;;;5013920;28;20216;-60
2022/01/29 05:58:34;;;;;;;61.47;35.67;;;;;;;;;;5014120;28;20212;-60
2022/01/29 06:00:59;;;;;;;55.43;34.27;;;;;;;;;;5000363;28;20569;-60
2022/01/29 06:03:24;;;;;;;60.23;35.70;;;;;;;;;;4994315;28;20217;-60
2022/01/29 06:05:50;;;;;;;65.60;35.47;;;;;;;;;;4976985;28;20308;-60
2022/01/29 06:08:15;;;;;;;66.67;36.40;;;;;;;;;;4976132;28;20240;-60
2022/01/29 06:10:40;;;;;;;61.07;35.43;;;;;;;;;;4994438;28;20220;-60
2022/01/29 06:13:08;;;;;;;55.78;34.53;;;;;;;;;;4994093;28;20323;-61
2022/01/29 06:15:35;;;;;;;61.38;34.47;;;;;;;;;;4993588;28;20225;-61
2022/01/29 06:18:00;;;;;;;57.03;34.37;;;;;;;;;;4962589;28;20301;-61
2022/01/29 06:20:25;;;;;;;56.08;34.15;;;;;;;;;;4974737;28;20304;-60
2022/01/29 06:22:51;;;;;;;55.03;34.23;;;;;;;;;;4985684;28;20693;-60
2022/01/29 06:25:16;;;;;;;60.57;32.97;;;;;;;;;;5012931;28;20235;-61
2022/01/29 06:27:41;;;;;;;61.10;33.80;;;;;;;;;;5013284;28;20227;-60
2022/01/29 06:30:07;;;;;;;59.77;34.70;;;;;;;;;;5013322;28;20216;-61
2022/01/29 06:32:32;;;;;;;56.07;32.57;;;;;;;;;;5013836;28;20216;-60
2022/01/29 06:34:57;;;;;;;55.93;32.83;;;;;;;;;;5011820;28;20215;-60
2022/01/29 06:37:22;;;;;;;57.97;32.00;;;;;;;;;;5013401;28;20205;-60
2022/01/29 06:39:48;;;;;;;53.70;33.10;;;;;;;;;;5013864;28;20222;-61
2022/01/29 06:42:13;;;;;;;52.47;31.37;;;;;;;;;;5012103;28;20263;-60
2022/01/29 06:44:38;;;;;;;53.73;32.90;;;;;;;;;;5013347;28;20212;-60
2022/01/29 06:47:03;;;;;;;51.93;32.90;;;;;;;;;;5012978;28;20651;-61
2022/01/29 06:49:29;;;;;;;63.17;33.20;;;;;;;;;;5012366;28;20209;-60
2022/01/29 06:51:54;;;;;;;48.60;30.47;;;;;;;;;;5013431;28;20746;-60
2022/01/29 06:54:19;;;;;;;48.30;30.33;;;;;;;;;;5012868;28;20616;-59
2022/01/29 06:56:44;;;;;;;49.33;29.97;;;;;;;;;;5012689;28;20204;-62
2022/01/29 06:59:10;;;;;;;52.63;32.25;;;;;;;;;;5012602;28;20212;-62
2022/01/29 07:01:35;;;;;;;49.20;29.67;;;;;;;;;;4994833;28;20217;-62
2022/01/29 07:04:00;;;;;;;47.87;30.70;;;;;;;;;;4974895;28;20288;-63
2022/01/29 07:06:26;;;;;;;48.23;27.50;;;;;;;;;;4993292;28;20757;-62
2022/01/29 07:08:51;;;;;;;45.08;28.05;;;;;;;;;;4993371;28;20256;-61
2022/01/29 07:11:20;;;;;;;47.07;29.20;;;;;;;;;;4991780;28;20217;-61
2022/01/29 07:13:45;;;;;;;49.33;28.70;;;;;;;;;;4993383;28;20212;-60
2022/01/29 07:16:10;;;;;;;39.23;26.40;;;;;;;;;;4992732;28;20220;-61
2022/01/29 07:18:36;;;;;;;46.93;27.97;;;;;;;;;;4972943;28;20240;-61
2022/01/29 07:21:01;;;;;;;43.90;24.55;;;;;;;;;;4973271;28;20670;-62
2022/01/29 07:23:26;;;;;;;41.97;24.45;;;;;;;;;;4977171;28;20252;-61
2022/01/29 07:25:52;;;;;;;40.83;26.93;;;;;;;;;;5011914;28;20319;-61
2022/01/29 07:28:17;;;;;;;43.73;26.43;;;;;;;;;;5012165;28;20217;-61
2022/01/29 07:30:42;;;;;;;39.20;24.42;;;;;;;;;;4996334;28;20251;-61
2022/01/29 07:33:07;;;;;;;37.93;24.10;;;;;;;;;;4991879;28;20213;-61
2022/01/29 07:35:32;;;;;;;40.00;24.77;;;;;;;;;;4992928;28;20295;-62
2022/01/29 07:37:58;;;;;;;43.07;25.20;;;;;;;;;;4983717;28;20217;-62
2022/01/29 07:40:23;;;;;;;37.20;23.50;;;;;;;;;;4955902;28;20224;-60
2022/01/29 07:42:48;;;;;;;33.08;21.95;;;;;;;;;;4973530;28;20704;-62
2022/01/29 07:45:13;;;;;;;44.47;29.93;;;;;;;;;;4971630;28;20431;-63
2022/01/29 07:47:39;;;;;;;41.55;25.48;;;;;;;;;;4973332;28;20213;-63
2022/01/29 07:50:04;;;;;;;33.07;21.13;;;;;;;;;;4972985;28;20618;-62
2022/01/29 07:52:31;;;;;;;30.87;20.97;;;;;;;;;;4972794;28;20690;-64
2022/01/29 07:54:56;;;;;;;33.72;21.95;;;;;;;;;;4973277;28;20220;-61
2022/01/29 07:57:22;;;;;;;40.40;23.90;;;;;;;;;;4972801;28;20218;-61
2022/01/29 07:59:48;;;;;;;31.92;22.15;;;;;;;;;;4976120;28;20217;-61
2022/01/29 08:02:13;;;;;;;34.13;20.83;;;;;;;;;;4991670;28;20224;-61
2022/01/29 08:04:38;;;;;;;29.60;20.10;;;;;;;;;;4992916;28;20209;-60
2022/01/29 08:07:03;;;;;;;28.50;19.63;;;;;;;;;;4991330;28;20705;-60
2022/01/29 08:09:29;;;;;;;32.65;19.17;;;;;;;;;;4992756;28;20275;-61
2022/01/29 08:11:54;;;;;;;26.63;18.53;;;;;;;;;;4975140;28;20267;-60
2022/01/29 08:14:19;;;;;;;26.05;16.77;;;;;;;;;;4991454;28;20209;-61
2022/01/29 08:16:44;;;;;;;26.30;16.83;;;;;;;;;;4988090;28;20662;-61
2022/01/29 08:19:10;;;;;;;25.38;15.85;;;;;;;;;;4972730;28;20252;-60
2022/01/29 08:21:38;;;;;;;27.58;16.67;;;;;;;;;;4972415;28;20217;-60
2022/01/29 08:24:04;;;;;;;21.92;14.63;;;;;;;;;;5003197;28;20286;-61
2022/01/29 08:26:29;;;;;;;24.92;15.45;;;;;;;;;;5011916;28;20224;-61
2022/01/29 08:28:54;;;;;;;19.92;14.50;;;;;;;;;;5011110;28;20217;-61
2022/01/29 08:31:19;;;;;;;22.35;14.40;;;;;;;;;;5011536;28;20216;-61
2022/01/29 08:33:45;;;;;;;21.00;15.02;;;;;;;;;;5012019;28;20208;-61
2022/01/29 08:36:10;;;;;;;26.63;15.20;;;;;;;;;;4993270;28;20689;-61
2022/01/29 08:38:35;;;;;;;21.63;13.90;;;;;;;;;;5012113;28;20201;-61
2022/01/29 08:41:00;;;;;;;22.83;14.00;;;;;;;;;;5011543;28;20567;-61
2022/01/29 08:43:26;;;;;;;26.65;16.13;;;;;;;;;;5011159;28;20212;-61
2022/01/29 08:45:51;;;;;;;21.65;14.20;;;;;;;;;;4994351;28;20687;-61
2022/01/29 08:48:17;;;;;;;22.98;15.05;;;;;;;;;;4993390;28;20219;-61
2022/01/29 08:50:42;;;;;;;26.60;17.70;;;;;;;;;;5011892;28;20263;-61
2022/01/29 08:53:07;;;;;;;25.55;16.30;;;;;;;;;;5011438;28;20235;-61
2022/01/29 08:55:36;;;;;;;24.80;16.02;;;;;;;;;;5011097;28;20239;-61
2022/01/29 08:58:03;;;;;;;25.08;18.60;;;;;;;;;;5012201;28;20217;-61
2022/01/29 09:00:28;;;;;;;22.88;15.00;;;;;;;;;;5006060;28;20245;-61
2022/01/29 09:02:53;;;;;;;25.88;15.43;;;;;;;;;;4994860;28;20232;-61
2022/01/29 09:05:18;;;;;;;21.33;15.20;;;;;;;;;;4995340;28;20629;-61
2022/01/29 09:07:44;;;;;;;20.48;14.75;;;;;;;;;;4995925;28;20304;-61
2022/01/29 09:10:09;;;;;;;19.67;14.07;;;;;;;;;;4994610;28;20219;-61
2022/01/29 09:12:34;;;;;;;20.10;14.80;;;;;;;;;;4995483;28;20209;-61
2022/01/29 09:15:00;;;;;;;22.90;14.93;;;;;;;;;;4995484;28;20606;-61
2022/01/29 09:17:25;;;;;;;22.13;14.75;;;;;;;;;;4984216;28;20214;-61
2022/01/29 09:19:50;;;;;;;20.02;14.43;;;;;;;;;;4976280;28;20214;-61
2022/01/29 09:22:15;;;;;;;21.58;13.88;;;;;;;;;;4960320;28;20213;-61
2022/01/29 09:24:41;;;;;;;18.05;13.20;;;;;;;;;;5014033;28;20224;-61
2022/01/29 09:27:06;;;;;;;17.65;12.70;;;;;;;;;;5014221;28;20220;-61
2022/01/29 09:29:31;;;;;;;19.02;12.52;;;;;;;;;;5014758;28;20212;-61
2022/01/29 09:31:56;;;;;;;19.13;12.23;;;;;;;;;;5013863;28;20219;-61
2022/01/29 09:34:22;;;;;;;20.77;12.77;;;;;;;;;;4996902;28;20209;-61
2022/01/29 09:36:47;;;;;;;20.15;12.75;;;;;;;;;;5014410;28;20216;-61
2022/01/29 09:39:12;;;;;;;19.90;14.13;;;;;;;;;;4996119;28;20221;-61
2022/01/29 09:41:38;;;;;;;18.27;12.60;;;;;;;;;;5014759;28;20579;-61
2022/01/29 09:44:03;;;;;;;18.27;12.07;;;;;;;;;;4996877;28;20235;-61
2022/01/29 09:46:30;;;;;;;18.88;12.10;;;;;;;;;;4996037;28;20239;-61
2022/01/29 09:48:55;;;;;;;18.53;11.70;;;;;;;;;;4997368;28;20219;-61
2022/01/29 09:51:20;;;;;;;21.15;11.45;;;;;;;;;;5014251;28;20216;-61
2022/01/29 09:53:46;;;;;;;18.25;11.75;;;;;;;;;;5013869;28;20696;-61
2022/01/29 09:56:12;;;;;;;18.73;11.68;;;;;;;;;;4996481;28;20217;-61
2022/01/29 09:58:38;;;;;;;20.38;11.50;;;;;;;;;;5013615;28;20212;-61
2022/01/29 10:01:03;;;;;;;21.63;10.25;;;;;;;;;;4999763;28;20209;-61
2022/01/29 10:03:28;;;;;;;13.18;10.25;;;;;;;;;;4977079;28;20209;-61
2022/01/29 10:05:54;;;;;;;19.63;10.20;;;;;;;;;;4993780;28;20225;-61
2022/01/29 10:08:19;;;;;;;16.75;10.43;;;;;;;;;;4976744;28;20224;-61
2022/01/29 10:11:04;;;;;;;16.35;9.43;;;;;;;;;;4977252;28;20213;-61
2022/01/29 10:13:36;;;;;;;16.10;8.25;;;;;;;;;;4993311;28;20225;-61
2022/01/29 10:16:04;;;;;;;14.93;8.90;;;;;;;;;;4976591;28;20217;-61
2022/01/29 10:18:30;;;;;;;17.43;11.17;;;;;;;;;;4975913;28;20225;-61
2022/01/29 10:20:56;;;;;;;26.95;15.60;;;;;;;;;;4974272;28;20221;-61
2022/01/29 10:23:21;;;;;;;23.17;12.15;;;;;;;;;;4993735;28;20243;-61
2022/01/29 10:25:47;;;;;;;21.08;12.45;;;;;;;;;;4996149;28;20590;-61
2022/01/29 10:28:19;;;;;;;24.83;13.93;;;;;;;;;;4994670;28;20321;-61
2022/01/29 10:30:49;;;;;;;11.63;8.32;;;;;;;;;;5013896;28;20205;-61
2022/01/29 10:33:19;;;;;;;15.32;7.97;;;;;;;;;;5013186;28;20212;-61
2022/01/29 10:35:45;;;;;;;14.15;8.18;;;;;;;;;;5012923;28;20235;-61
2022/01/29 10:38:10;;;;;;;12.45;7.72;;;;;;;;;;5013051;28;20232;-61
2022/01/29 10:40:38;;;;;;;15.38;9.73;;;;;;;;;;4996151;28;20234;-61
2022/01/29 10:43:03;;;;;;;11.52;6.95;;;;;;;;;;5012184;28;20229;-61
2022/01/29 10:45:35;;;;;;;12.77;7.20;;;;;;;;;;5013368;28;20213;-61
2022/01/29 10:48:00;;;;;;;11.25;6.78;;;;;;;;;;4995096;28;20288;-61
2022/01/29 10:50:25;;;;;;;12.07;6.45;;;;;;;;;;4995675;28;20239;-61
2022/01/29 10:52:51;;;;;;;11.88;5.15;;;;;;;;;;4995751;28;20231;-61
2022/01/29 10:55:16;;;;;;;14.80;6.15;;;;;;;;;;5011675;28;20241;-61
2022/01/29 10:57:43;;;;;;;10.75;4.30;;;;;;;;;;4995462;28;20208;-61
2022/01/29 11:00:15;;;;;;;10.52;5.38;;;;;;;;;;5006367;28;20231;-61
2022/01/29 11:02:40;;;;;;;10.23;4.60;;;;;;;;;;4992606;28;20221;-61
2022/01/29 11:05:06;;;;;;;12.65;7.20;;;;;;;;;;4993432;28;20217;-61
2022/01/29 11:07:31;;;;;;;12.38;5.97;;;;;;;;;;4993466;28;20225;-61
2022/01/29 11:09:59;;;;;;;13.48;6.88;;;;;;;;;;4975465;28;20212;-61
2022/01/29 11:12:25;;;;;;;24.35;13.00;;;;;;;;;;4993043;28;20213;-61
2022/01/29 11:14:51;;;;;;;10.57;4.78;;;;;;;;;;4993170;28;20212;-61
2022/01/29 11:17:18;;;;;;;9.40;4.18;;;;;;;;;;4983114;28;20554;-61
2022/01/29 11:19:43;;;;;;;10.45;4.10;;;;;;;;;;4973936;28;20213;-61
2022/01/29 11:22:09;;;;;;;8.65;3.70;;;;;;;;;;4973094;28;20209;-61
2022/01/29 11:24:34;;;;;;;7.85;3.83;;;;;;;;;;4994366;28;20239;-61
2022/01/29 11:27:00;;;;;;;9.98;3.83;;;;;;;;;;4995149;28;20221;-60
2022/01/29 11:29:26;;;;;;;9.70;3.95;;;;;;;;;;5011964;28;20283;-61
2022/01/29 11:32:11;;;;;;;7.40;3.33;;;;;;;;;;5012027;28;20223;-61
2022/01/29 11:34:55;;;;;;;7.93;3.33;;;;;;;;;;5012029;28;20200;-61
2022/01/29 11:37:21;;;;;;;6.45;2.92;;;;;;;;;;5011340;28;20222;-61
2022/01/29 11:39:46;;;;;;;9.50;3.40;;;;;;;;;;4994681;28;20299;-61
2022/01/29 11:42:12;;;;;;;8.27;3.60;;;;;;;;;;5012361;28;20216;-61
2022/01/29 11:44:38;;;;;;;8.32;3.67;;;;;;;;;;5011844;28;20582;-61
2022/01/29 11:47:29;;;;;;;8.73;4.45;;;;;;;;;;5011833;28;20231;-61
2022/01/29 11:50:13;;;;;;;9.15;2.90;;;;;;;;;;5012222;28;20212;-61
2022/01/29 11:52:57;;;;;;;10.52;4.10;;;;;;;;;;5011516;28;20212;-61
2022/01/29 11:55:35;;;;;;;9.93;4.18;;;;;;;;;;5011966;28;20648;-61
2022/01/29 11:58:12;;;;;;;13.52;6.32;;;;;;;;;;4994944;28;20699;-61
2022/01/29 12:00:38;;;;;;;8.43;4.10;;;;;;;;;;5001953;28;20220;-61
2022/01/29 12:03:04;;;;;;;10.43;3.63;;;;;;;;;;4974861;28;20703;-61
2022/01/29 12:05:31;;;;;;;11.57;4.13;;;;;;;;;;4992094;28;20674;-61
2022/01/29 12:08:04;;;;;;;36.33;17.95;;;;;;;;;;4992970;28;20259;-61
2022/01/29 12:10:36;;;;;;;9.75;3.28;;;;;;;;;;4975222;28;20209;-61
2022/01/29 12:13:08;;;;;;;6.63;3.03;;;;;;;;;;4991386;28;20286;-61
2022/01/29 12:15:33;;;;;;;7.13;2.03;;;;;;;;;;4992905;28;20217;-61
2022/01/29 12:18:01;;;;;;;10.13;3.22;;;;;;;;;;4978361;28;20225;-61
2022/01/29 12:20:27;;;;;;;8.70;2.33;;;;;;;;;;4972165;28;20205;-61
2022/01/29 12:22:52;;;;;;;6.45;1.98;;;;;;;;;;4967573;28;20219;-61
2022/01/29 12:25:18;;;;;;;7.90;2.08;;;;;;;;;;5011463;28;20240;-61
2022/01/29 12:27:45;;;;;;;9.43;2.25;;;;;;;;;;5011299;28;20231;-61
2022/01/29 12:30:11;;;;;;;7.83;2.13;;;;;;;;;;5011672;28;20224;-60
2022/01/29 12:32:36;;;;;;;7.57;2.20;;;;;;;;;;5012551;28;20212;-61
2022/01/29 12:35:03;;;;;;;8.02;2.28;;;;;;;;;;5014686;28;20227;-61
2022/01/29 12:37:29;;;;;;;6.88;2.15;;;;;;;;;;5015950;28;20567;-61
2022/01/29 12:40:06;;;;;;;8.73;2.50;;;;;;;;;;5015709;28;20216;-61
2022/01/29 12:42:43;;;;;;;9.27;2.10;;;;;;;;;;4997465;28;20218;-61
2022/01/29 12:45:08;;;;;;;6.57;2.42;;;;;;;;;;4998387;28;20312;-61
2022/01/29 12:47:34;;;;;;;7.82;2.88;;;;;;;;;;5014906;28;20303;-61
2022/01/29 12:49:59;;;;;;;7.82;2.10;;;;;;;;;;5015293;28;20609;-61
2022/01/29 12:52:25;;;;;;;7.72;2.15;;;;;;;;;;5015261;28;20212;-61
2022/01/29 12:54:52;;;;;;;6.63;2.22;;;;;;;;;;5014796;28;20303;-61
2022/01/29 12:57:18;;;;;;;5.90;2.10;;;;;;;;;;4997969;28;20683;-61
2022/01/29 12:59:43;;;;;;;7.00;2.17;;;;;;;;;;5012257;28;20303;-61
2022/01/29 13:02:08;;;;;;;6.70;1.80;;;;;;;;;;4987456;28;20703;-61
2022/01/29 13:04:34;;;;;;;7.63;2.42;;;;;;;;;;4981933;28;20280;-61
2022/01/29 13:07:00;;;;;;;8.30;2.50;;;;;;;;;;4976365;28;20583;-61
2022/01/29 13:09:27;;;;;;;5.63;1.95;;;;;;;;;;4974700;28;21145;-61
2022/01/29 13:11:56;;;;;;;10.00;2.10;;;;;;;;;;4976361;28;20229;-61
2022/01/29 13:14:21;;;;;;;7.75;2.65;;;;;;;;;;4958326;28;20221;-61
2022/01/29 13:16:47;;;;;;;7.35;2.33;;;;;;;;;;4979831;28;20213;-61
2022/01/29 13:19:12;;;;;;;7.90;2.45;;;;;;;;;;4977496;28;20248;-61
2022/01/29 13:21:39;;;;;;;6.22;2.05;;;;;;;;;;4978220;28;20236;-61
2022/01/29 13:24:23;;;;;;;9.38;2.45;;;;;;;;;;4991977;28;20276;-61
2022/01/29 13:27:02;;;;;;;4.68;1.90;;;;;;;;;;5014864;28;20235;-61
2022/01/29 13:29:33;;;;;;;7.63;2.40;;;;;;;;;;5014443;28;20216;-61
2022/01/29 13:31:59;;;;;;;11.25;2.10;;;;;;;;;;4997183;28;20204;-61
2022/01/29 13:34:32;;;;;;;9.63;4.50;;;;;;;;;;5014161;28;20605;-61
2022/01/29 13:36:57;;;;;;;11.55;5.35;;;;;;;;;;5013896;28;20209;-61
2022/01/29 13:39:24;;;;;;;17.92;8.85;;;;;;;;;;5013879;28;20213;-61
2022/01/29 13:42:09;;;;;;;6.53;3.90;;;;;;;;;;5014677;28;20209;-61
2022/01/29 13:44:34;;;;;;;13.52;6.28;;;;;;;;;;4995774;28;20236;-61
2022/01/29 13:47:06;;;;;;;8.93;3.28;;;;;;;;;;5014629;28;20260;-61
2022/01/29 13:49:31;;;;;;;9.07;2.33;;;;;;;;;;5014169;28;20213;-61
2022/01/29 13:51:57;;;;;;;8.48;2.20;;;;;;;;;;5013807;28;20231;-61
2022/01/29 13:54:22;;;;;;;5.00;2.08;;;;;;;;;;5013600;28;20594;-61
2022/01/29 13:56:49;;;;;;;6.43;1.90;;;;;;;;;;4997157;28;20227;-61
2022/01/29 13:59:16;;;;;;;7.03;2.28;;;;;;;;;;5013126;28;20572;-61
2022/01/29 14:01:46;;;;;;;8.02;2.30;;;;;;;;;;4994627;28;20597;-61
2022/01/29 14:04:21;;;;;;;7.32;3.08;;;;;;;;;;4976994;28;20215;-61
2022/01/29 14:06:55;;;;;;;6.85;2.60;;;;;;;;;;4993650;28;20695;-61
2022/01/29 14:09:22;;;;;;;9.52;2.53;;;;;;;;;;4977094;28;20703;-61
2022/01/29 14:11:56;;;;;;;9.07;2.20;;;;;;;;;;4994155;28;20213;-61
2022/01/29 14:14:22;;;;;;;6.60;2.40;;;;;;;;;;4993999;28;20205;-61
2022/01/29 14:16:47;;;;;;;6.60;2.25;;;;;;;;;;4989476;28;20206;-61
2022/01/29 14:19:16;;;;;;;8.82;2.53;;;;;;;;;;4956512;28;20261;-61
2022/01/29 14:21:41;;;;;;;7.93;2.42;;;;;;;;;;4974628;28;20684;-61
2022/01/29 14:24:06;;;;;;;9.40;2.22;;;;;;;;;;5005867;28;20224;-61
2022/01/29 14:26:32;;;;;;;6.30;2.70;;;;;;;;;;5013036;28;20243;-61
2022/01/29 14:28:58;;;;;;;9.80;2.65;;;;;;;;;;5013878;28;20219;-61
2022/01/29 14:31:23;;;;;;;8.30;2.45;;;;;;;;;;5013701;28;20283;-61
2022/01/29 14:33:48;;;;;;;6.22;2.30;;;;;;;;;;5013150;28;20355;-61